createdAt,value
2023-04-04T00:00:22.983Z,101612.97
2023-04-04T00:05:26.491Z,101618.28
2023-04-04T00:10:29.184Z,101600.09
2023-04-04T00:15:31.908Z,101597.66
2023-04-04T00:20:34.644Z,101596.59
2023-04-04T00:25:38.174Z,101600.91
2023-04-04T00:30:41.117Z,101599.81
2023-04-04T00:35:44.146Z,101594.56
2023-04-04T00:40:49.045Z,101595.25
2023-04-04T00:45:52.675Z,101589.41
2023-04-04T00:50:55.463Z,101585.06
2023-04-04T00:55:58.304Z,101589.69
2023-04-04T01:01:01.886Z,101586.94
2023-04-04T01:06:04.777Z,101589.78
2023-04-04T01:11:07.696Z,101598.09
2023-04-04T01:16:10.725Z,101602.75
2023-04-04T01:21:14.996Z,101599.63
2023-04-04T01:26:18.020Z,101595.25
2023-04-04T01:31:29.893Z,101567.94
2023-04-04T01:36:59.515Z,101583.03
2023-04-04T01:42:03.656Z,101576.69
2023-04-04T01:47:10.189Z,101575.38
2023-04-04T01:52:13.434Z,101584.88
2023-04-04T01:57:16.374Z,101577.31
2023-04-04T02:02:19.791Z,101576.66
2023-04-04T02:07:22.452Z,101568.88
2023-04-04T02:12:25.430Z,101580.69
2023-04-04T02:17:28.835Z,101591.72
2023-04-04T02:22:31.946Z,101590.78
2023-04-04T02:27:34.981Z,101584.91
2023-04-04T02:32:38.560Z,101582.22
2023-04-04T02:37:46.511Z,101576.69
2023-04-04T02:42:56.246Z,101558.66
2023-04-04T02:47:59.175Z,101558.63
2023-04-04T02:53:12.227Z,101550.19
2023-04-04T02:58:15.165Z,101547.59
2023-04-04T03:03:18.176Z,101544.50
2023-04-04T03:08:22.938Z,101547.69
2023-04-04T03:13:25.677Z,101539.38
2023-04-04T03:18:28.597Z,101530.19
2023-04-04T03:23:31.376Z,101524.91
2023-04-04T03:28:34.209Z,101519.44
2023-04-04T03:33:38.549Z,101519.03
2023-04-04T03:38:41.968Z,101511.19
2023-04-04T03:43:46.077Z,101506.16
2023-04-04T03:48:48.871Z,101496.59
2023-04-04T03:53:52.704Z,101494.69
2023-04-04T03:58:56.863Z,101486.94
2023-04-04T04:04:01.597Z,101481.94
2023-04-04T04:09:04.477Z,101477.59
2023-04-04T04:14:09.620Z,101473.94
2023-04-04T04:19:13.219Z,101472.59
2023-04-04T04:24:17.699Z,101465.41
2023-04-04T04:29:20.489Z,101466.13
2023-04-04T04:34:23.405Z,101442.66
2023-04-04T04:39:27.628Z,101462.94
2023-04-04T04:44:50.626Z,101450.09
2023-04-04T04:49:54.081Z,101432.69
2023-04-04T04:55:08.372Z,101425.81
2023-04-04T05:00:15.385Z,101422.69
2023-04-04T05:05:21.679Z,101422.94
2023-04-04T05:10:25.113Z,101404.00
2023-04-04T05:15:30.275Z,101394.28
2023-04-04T05:20:33.788Z,101373.06
2023-04-04T05:25:38.420Z,101369.28
2023-04-04T05:30:42.246Z,101383.78
2023-04-04T05:35:50.360Z,101374.75
2023-04-04T05:40:54.879Z,101367.13
2023-04-04T05:45:58.815Z,101355.66
2023-04-04T05:51:03.469Z,101352.16
2023-04-04T05:56:17.034Z,101349.53
2023-04-04T06:01:20.606Z,101343.72
2023-04-04T06:06:26.936Z,101339.81
2023-04-04T06:11:30.324Z,101340.63
2023-04-04T06:16:39.379Z,101333.47
2023-04-04T06:21:42.114Z,101337.09
2023-04-04T06:26:46.212Z,101325.25
2023-04-04T06:31:50.159Z,101320.56
2023-04-04T06:36:59.163Z,101329.41
2023-04-04T06:42:06.600Z,101326.28
2023-04-04T06:47:11.285Z,101320.84
2023-04-04T06:52:14.188Z,101306.13
2023-04-04T06:57:18.607Z,101317.75
2023-04-04T07:02:22.239Z,101333.34
2023-04-04T07:07:25.191Z,101346.59
2023-04-04T07:12:27.919Z,101338.63
2023-04-04T07:17:33.328Z,101341.75
2023-04-04T07:22:40.260Z,101348.56
2023-04-04T07:27:43.205Z,101355.16
2023-04-04T07:32:46.365Z,101344.03
2023-04-04T07:37:49.141Z,101350.41
2023-04-04T07:42:52.167Z,101362.28
2023-04-04T07:47:55.004Z,101373.03
2023-04-04T07:52:59.046Z,101376.28
2023-04-04T07:58:01.932Z,101364.50
2023-04-04T08:03:04.761Z,101374.28
2023-04-04T08:08:07.763Z,101370.56
2023-04-04T08:13:10.448Z,101377.81
2023-04-04T08:18:13.383Z,101373.09
2023-04-04T08:23:16.145Z,101385.53
2023-04-04T08:28:18.928Z,101382.09
2023-04-04T08:33:31.617Z,101395.69
2023-04-04T08:38:47.303Z,101389.16
2023-04-04T08:43:54.905Z,101408.34
2023-04-04T08:49:00.126Z,101415.00
2023-04-04T08:54:03.428Z,101414.53
2023-04-04T08:59:06.724Z,101428.22
2023-04-04T09:04:09.971Z,101421.34
2023-04-04T09:09:12.882Z,101433.22
2023-04-04T09:14:15.817Z,101438.72
2023-04-04T09:19:18.584Z,101445.56
2023-04-04T09:24:21.506Z,101464.03
2023-04-04T09:29:24.320Z,101475.91
2023-04-04T09:34:29.427Z,101483.50
2023-04-04T09:39:33.178Z,101514.06
2023-04-04T09:44:37.262Z,101531.59
2023-04-04T09:49:40.745Z,101548.13
2023-04-04T09:54:48.362Z,101578.09
2023-04-04T09:59:51.830Z,101596.94
2023-04-04T10:05:05.132Z,101630.03
2023-04-04T10:10:09.616Z,101654.31
2023-04-04T10:15:12.504Z,101682.97
2023-04-04T10:20:15.540Z,101691.06
2023-04-04T10:25:18.606Z,101709.00
2023-04-04T10:30:21.598Z,101726.53
2023-04-04T10:35:25.182Z,101732.59
2023-04-04T10:40:33.633Z,101755.44
2023-04-04T10:45:40.496Z,101763.97
2023-04-04T10:50:43.678Z,101762.50
2023-04-04T10:55:47.050Z,101779.25
2023-04-04T11:00:55.571Z,101787.69
2023-04-04T11:06:02.228Z,101788.53
2023-04-04T11:11:09.737Z,101799.91
2023-04-04T11:16:21.541Z,101804.78
2023-04-04T11:21:25.373Z,101824.31
2023-04-04T11:26:31.081Z,101828.75
2023-04-04T11:31:36.112Z,101833.91
2023-04-04T11:36:39.283Z,101843.84
2023-04-04T11:41:57.676Z,101841.38
2023-04-04T11:47:06.382Z,101857.53
2023-04-04T11:52:11.376Z,101866.97
2023-04-04T11:57:19.214Z,101877.94
2023-04-04T12:02:32.274Z,101883.25
2023-04-04T12:07:35.669Z,101900.25
2023-04-04T12:12:39.894Z,101901.91
2023-04-04T12:17:44.515Z,101905.94
2023-04-04T12:22:50.497Z,101920.41
2023-04-04T12:27:54.423Z,101924.34
2023-04-04T12:32:57.725Z,101935.19
2023-04-04T12:38:14.169Z,101934.94
2023-04-04T12:43:18.102Z,101952.97
2023-04-04T12:48:28.066Z,101958.38
2023-04-04T12:53:33.318Z,101974.75
2023-04-04T12:58:37.894Z,101983.38
2023-04-04T13:03:41.078Z,101999.84
2023-04-04T13:08:52.422Z,102002.63
2023-04-04T13:14:04.857Z,102015.50
2023-04-04T13:19:07.703Z,102026.13
2023-04-04T13:24:10.447Z,102035.44
2023-04-04T13:29:13.154Z,102053.41
2023-04-04T13:34:15.980Z,102064.81
2023-04-04T13:39:18.879Z,102077.31
2023-04-04T13:44:21.590Z,102094.16
2023-04-04T13:49:24.329Z,102097.44
2023-04-04T13:54:27.089Z,102118.03
2023-04-04T13:59:29.908Z,102132.22
2023-04-04T14:04:32.729Z,102134.53
2023-04-04T14:09:35.635Z,102137.06
2023-04-04T14:14:38.411Z,102142.50
2023-04-04T14:19:42.740Z,102164.78
2023-04-04T14:24:45.431Z,102176.25
2023-04-04T14:29:48.607Z,102186.53
2023-04-04T14:34:51.411Z,102185.91
2023-04-04T14:39:54.209Z,102194.16
2023-04-04T14:44:57.059Z,102194.75
2023-04-04T14:50:01.180Z,102207.31
2023-04-04T14:55:06.445Z,102211.22
2023-04-04T15:00:10.803Z,102212.84
2023-04-04T15:05:15.151Z,102216.69
2023-04-04T15:10:17.942Z,102232.59
2023-04-04T15:15:23.126Z,102232.19
2023-04-04T15:20:26.464Z,102219.47
2023-04-04T15:25:30.190Z,102248.97
2023-04-04T15:30:33.717Z,102256.81
2023-04-04T15:35:36.657Z,102253.66
2023-04-04T15:40:39.782Z,102260.53
2023-04-04T15:45:42.970Z,102247.44
2023-04-04T15:50:45.785Z,102264.28
2023-04-04T15:55:48.526Z,102278.06
2023-04-04T16:00:51.457Z,102271.19
2023-04-04T16:05:54.377Z,102273.75
2023-04-04T16:10:58.538Z,102295.16
2023-04-04T16:16:01.306Z,102289.25
2023-04-04T16:21:05.000Z,102283.28
2023-04-04T16:26:07.739Z,102293.41
2023-04-04T16:31:10.473Z,102303.09
2023-04-04T16:36:13.524Z,102303.00
2023-04-04T16:41:17.006Z,102309.63
2023-04-04T16:46:20.022Z,102312.41
2023-04-04T16:51:23.034Z,102326.16
2023-04-04T16:56:25.933Z,102323.00
2023-04-04T17:01:28.675Z,102331.59
2023-04-04T17:06:31.692Z,102311.56
2023-04-04T17:11:45.048Z,102335.22
2023-04-04T17:16:48.501Z,102333.41
2023-04-04T17:21:51.595Z,102342.22
2023-04-04T17:26:56.430Z,102351.81
2023-04-04T17:32:00.053Z,102350.25
2023-04-04T17:37:03.144Z,102341.34
2023-04-04T17:42:06.387Z,102353.00
2023-04-04T17:47:09.237Z,102356.63
2023-04-04T17:52:14.583Z,102359.47
2023-04-04T17:57:17.924Z,102340.41
2023-04-04T18:02:21.029Z,102360.75
2023-04-04T18:07:23.688Z,102358.13
2023-04-04T18:12:30.452Z,102360.63
2023-04-04T18:17:33.765Z,102358.13
2023-04-04T18:22:36.803Z,102371.53
2023-04-04T18:27:39.592Z,102377.28
2023-04-04T18:32:42.839Z,102384.41
2023-04-04T18:37:45.573Z,102383.34
2023-04-04T18:42:48.510Z,102382.44
2023-04-04T18:47:51.564Z,102381.72
2023-04-04T18:52:54.297Z,102389.75
2023-04-04T18:57:57.837Z,102388.66
2023-04-04T19:03:01.002Z,102389.44
2023-04-04T19:08:06.857Z,102380.16
2023-04-04T19:13:09.531Z,102393.91
2023-04-04T19:18:12.586Z,102377.66
2023-04-04T19:23:15.329Z,102395.84
2023-04-04T19:28:18.260Z,102393.31
2023-04-04T19:33:24.954Z,102399.22
2023-04-04T19:38:33.626Z,102407.19
2023-04-04T19:43:36.690Z,102396.13
2023-04-04T19:48:50.901Z,102391.69
2023-04-04T19:53:56.302Z,102406.78
2023-04-04T19:59:06.286Z,102407.84
2023-04-04T20:04:11.291Z,102412.81
2023-04-04T20:09:33.114Z,102407.97
2023-04-04T20:14:35.939Z,102416.47
2023-04-04T20:19:38.733Z,102411.59
2023-04-04T20:24:42.723Z,102409.44
2023-04-04T20:29:45.461Z,102415.13
2023-04-04T20:34:50.803Z,102418.28
2023-04-04T20:40:09.213Z,102424.47
2023-04-04T20:45:11.982Z,102415.41
2023-04-04T20:50:17.427Z,102415.97
2023-04-04T20:55:21.365Z,102421.84
2023-04-04T21:00:39.834Z,102424.69
2023-04-04T21:05:43.050Z,102415.66
2023-04-04T21:10:52.164Z,102422.97
2023-04-04T21:16:02.791Z,102420.47
2023-04-04T21:21:10.284Z,102426.31
2023-04-04T21:26:29.986Z,102434.13
2023-04-04T21:31:39.969Z,102441.63
2023-04-04T21:36:43.850Z,102449.28
2023-04-04T21:41:47.550Z,102440.41
2023-04-04T21:46:50.485Z,102443.25
2023-04-04T21:51:53.273Z,102438.41
2023-04-04T21:56:56.338Z,102443.78
2023-04-04T22:01:59.138Z,102441.09
2023-04-04T22:07:01.937Z,102454.75
2023-04-04T22:12:05.586Z,102438.88
2023-04-04T22:17:08.342Z,102438.31
2023-04-04T22:22:11.449Z,102434.03
2023-04-04T22:27:15.010Z,102439.59
2023-04-04T22:32:17.917Z,102436.03
2023-04-04T22:37:21.963Z,102443.44
2023-04-04T22:42:24.637Z,102418.84
2023-04-04T22:47:27.319Z,102441.22
2023-04-04T22:52:31.041Z,102450.16
2023-04-04T22:57:33.736Z,102450.34
2023-04-04T23:02:37.129Z,102433.25
2023-04-04T23:07:40.382Z,102444.66
2023-04-04T23:12:43.280Z,102441.50
2023-04-04T23:17:46.913Z,102441.28
2023-04-04T23:22:49.644Z,102436.31
2023-04-04T23:27:52.558Z,102444.06
2023-04-04T23:32:55.563Z,102446.69
2023-04-04T23:37:58.375Z,102448.44
2023-04-04T23:43:01.224Z,102445.50
2023-04-04T23:48:04.092Z,102465.38
2023-04-04T23:53:06.995Z,102459.16
2023-04-04T23:58:09.691Z,102459.53
